Time;durP1;ratioP1;P1;durP2;ratioP2;P2;SDS_P1;SDS_P2;PMS_P1;PMS_P2;Temp;Humidity;BMP_temperature;BMP_pressure;BME280_temperature;BME280_humidity;BME280_pressure;Samples;Min_cycle;Max_cycle;Signal;HPM_P1;HPM_P2
2024/01/15 00:00:40;;;;;;;;;39.00;32.80;;;;;7.25;100.00;100441.53;2096938;28;45547;-67
2024/01/15 00:01:44;;;;;;;;;26.50;22.25;;;;;7.33;100.00;100437.03;2097101;28;46265;-67
2024/01/15 00:02:44;;;;;;;;;36.80;30.60;;;;;7.30;100.00;100431.78;2096570;28;46324;-67
2024/01/15 00:03:45;;;;;;;;;35.50;33.25;;;;;7.34;100.00;100434.34;2097001;28;46608;-67
2024/01/15 00:04:45;;;;;;;;;37.25;34.75;;;;;7.36;100.00;100437.84;2096871;28;46456;-67
2024/01/15 00:05:45;;;;;;;;;30.50;29.00;;;;;7.36;100.00;100431.69;2096949;28;46556;-67
2024/01/15 00:06:46;;;;;;;;;29.50;29.50;;;;;7.34;100.00;100431.72;2096584;28;46491;-66
2024/01/15 00:07:46;;;;;;;;;30.75;29.25;;;;;7.37;100.00;100430.81;2096860;28;46283;-66
2024/01/15 00:08:46;;;;;;;;;33.00;30.50;;;;;7.36;100.00;100427.28;2096603;28;46172;-66
2024/01/15 00:09:47;;;;;;;;;31.50;29.75;;;;;7.37;100.00;100425.56;2095911;28;46579;-67
2024/01/15 00:10:47;;;;;;;;;33.75;31.75;;;;;7.35;100.00;100422.91;2096820;28;46556;-66
2024/01/15 00:11:47;;;;;;;;;31.75;29.50;;;;;7.35;100.00;100416.75;2088778;28;46594;-67
2024/01/15 00:12:48;;;;;;;;;37.00;33.00;;;;;7.35;100.00;100403.56;2097489;28;45594;-66
2024/01/15 00:13:48;;;;;;;;;35.75;34.00;;;;;7.36;100.00;100407.94;2097774;28;45038;-67
2024/01/15 00:14:48;;;;;;;;;33.00;32.00;;;;;7.37;100.00;100404.44;2097086;28;45100;-67
2024/01/15 00:15:49;;;;;;;;;27.25;25.50;;;;;7.32;100.00;100398.31;2097209;28;46770;-67
2024/01/15 00:16:51;;;;;;;;;33.25;31.25;;;;;7.37;100.00;100405.31;2097434;28;46784;-67
2024/01/15 00:17:51;;;;;;;;;35.20;30.80;;;;;7.36;100.00;100405.28;2097442;28;46204;-67
2024/01/15 00:18:51;;;;;;;;;32.25;29.25;;;;;7.34;100.00;100402.69;2097770;28;46813;-67
2024/01/15 00:19:52;;;;;;;;;29.25;29.25;;;;;7.32;100.00;100393.03;2097591;28;46911;-67
2024/01/15 00:20:52;;;;;;;;;29.00;27.50;;;;;7.31;100.00;100393.94;2096498;28;46249;-67
2024/01/15 00:21:52;;;;;;;;;33.50;31.75;;;;;7.31;100.00;100394.81;2096538;28;46543;-67
2024/01/15 00:22:52;;;;;;;;;33.00;32.25;;;;;7.33;100.00;100397.41;2097611;28;46674;-68
2024/01/15 00:23:53;;;;;;;;;31.00;26.75;;;;;7.32;100.00;100395.69;2097363;28;46227;-67
2024/01/15 00:24:53;;;;;;;;;32.25;31.50;;;;;7.31;100.00;100396.56;2097146;28;46428;-67
2024/01/15 00:25:54;;;;;;;;;28.25;26.00;;;;;7.31;100.00;100392.16;2096090;28;46121;-67
2024/01/15 00:26:55;;;;;;;;;30.50;29.25;;;;;7.24;100.00;100389.63;2096685;28;46752;-67
2024/01/15 00:27:55;;;;;;;;;30.20;26.40;;;;;7.29;100.00;100399.25;2096396;28;46958;-67
2024/01/15 00:28:55;;;;;;;;;37.75;32.50;;;;;7.25;100.00;100401.94;2090821;28;46275;-67
2024/01/15 00:29:56;;;;;;;;;36.00;33.75;;;;;7.23;100.00;100401.06;2096938;28;45630;-68
2024/01/15 00:30:56;;;;;;;;;31.75;28.50;;;;;7.33;100.00;100402.69;2097079;28;46273;-66
2024/01/15 00:31:56;;;;;;;;;29.00;29.00;;;;;7.26;100.00;100401.94;2095334;28;46816;-67
2024/01/15 00:32:57;;;;;;;;;37.75;31.25;;;;;7.25;100.00;100404.59;2096216;28;45560;-67
2024/01/15 00:33:57;;;;;;;;;30.00;28.25;;;;;7.34;100.00;100404.44;2096472;28;46468;-67
2024/01/15 00:34:58;;;;;;;;;31.50;30.50;;;;;7.35;100.00;100408.81;2096876;28;46337;-67
2024/01/15 00:35:58;;;;;;;;;28.25;25.75;;;;;7.34;100.00;100399.16;2096325;28;45401;-68
2024/01/15 00:36:58;;;;;;;;;31.75;30.75;;;;;7.34;100.00;100401.81;2095917;28;47327;-67
2024/01/15 00:37:59;;;;;;;;;39.25;34.25;;;;;7.33;100.00;100400.94;2096176;28;45857;-66
2024/01/15 00:38:59;;;;;;;;;30.50;25.75;;;;;7.34;100.00;100392.13;2096750;28;46265;-66
2024/01/15 00:39:59;;;;;;;;;31.00;31.00;;;;;7.37;100.00;100391.22;2097401;28;45238;-68
2024/01/15 00:41:00;;;;;;;;;36.00;31.25;;;;;7.37;100.00;100392.09;2097265;28;46320;-66
2024/01/15 00:42:00;;;;;;;;;39.25;34.25;;;;;7.38;100.00;100388.56;2096117;28;46416;-68
2024/01/15 00:43:02;;;;;;;;;34.25;30.00;;;;;7.39;100.00;100381.50;2097024;28;46041;-67
2024/01/15 00:44:02;;;;;;;;;32.60;27.80;;;;;7.38;100.00;100380.66;2097450;28;46704;-67
2024/01/15 00:45:05;;;;;;;;;34.00;29.50;;;;;7.39;100.00;100376.25;2097540;28;46486;-67
2024/01/15 00:46:05;;;;;;;;;29.20;26.40;;;;;7.38;100.00;100377.13;2097360;28;45869;-68
2024/01/15 00:47:05;;;;;;;;;36.75;32.00;;;;;7.40;100.00;100380.63;2097060;28;46643;-68
2024/01/15 00:48:06;;;;;;;;;30.75;30.75;;;;;7.41;100.00;100384.13;2095670;28;46378;-67
2024/01/15 00:49:06;;;;;;;;;34.75;32.25;;;;;7.40;100.00;100387.66;2096361;28;46876;-67
2024/01/15 00:50:08;;;;;;;;;32.00;28.75;;;;;7.35;100.00;100383.31;2097163;28;46308;-67
2024/01/15 00:51:08;;;;;;;;;29.20;27.40;;;;;7.39;100.00;100376.25;2099098;28;46000;-67
2024/01/15 00:52:08;;;;;;;;;35.25;31.00;;;;;7.40;100.00;100382.38;2096023;28;46564;-67
2024/01/15 00:53:09;;;;;;;;;30.25;29.00;;;;;7.39;100.00;100378.88;2096741;28;46127;-68
2024/01/15 00:54:09;;;;;;;;;35.50;31.50;;;;;7.39;100.00;100376.25;2098454;28;46292;-67
2024/01/15 00:55:09;;;;;;;;;29.25;29.25;;;;;7.38;100.00;100377.13;2101041;27;46154;-67
2024/01/15 00:56:10;;;;;;;;;30.00;29.25;;;;;7.39;100.00;100381.50;2096238;28;46518;-68
2024/01/15 00:57:10;;;;;;;;;32.50;27.00;;;;;7.40;100.00;100382.38;2097196;28;46292;-67
2024/01/15 00:58:10;;;;;;;;;33.25;30.00;;;;;7.38;100.00;100370.09;2098342;28;46989;-68
2024/01/15 00:59:14;;;;;;;;;30.50;27.25;;;;;7.41;100.00;100370.94;2099620;27;46667;-66
2024/01/15 01:00:15;;;;;;;;;34.20;32.40;;;;;7.41;100.00;100368.28;2096699;28;45878;-66
2024/01/15 01:01:15;;;;;;;;;37.75;28.75;;;;;7.33;100.00;100358.69;2093472;28;46285;-67
2024/01/15 01:02:15;;;;;;;;;26.00;25.50;;;;;7.32;100.00;100358.72;2096572;28;45608;-67
2024/01/15 01:03:16;;;;;;;;;33.25;31.25;;;;;7.40;100.00;100348.94;2097557;28;46516;-67
2024/01/15 01:04:16;;;;;;;;;29.50;29.50;;;;;7.42;100.00;100348.91;2097932;28;45529;-68
2024/01/15 01:05:16;;;;;;;;;31.50;30.75;;;;;7.29;100.00;100349.09;2097653;28;46420;-67
2024/01/15 01:06:17;;;;;;;;;34.25;29.25;;;;;7.32;100.00;100353.44;2097343;28;46560;-67
2024/01/15 01:07:17;;;;;;;;;34.75;31.00;;;;;7.38;100.00;100354.25;2097068;28;46616;-66
2024/01/15 01:08:17;;;;;;;;;32.50;31.00;;;;;7.37;100.00;100349.88;2097029;28;46428;-67
2024/01/15 01:09:18;;;;;;;;;30.25;30.25;;;;;7.38;100.00;100354.25;2097185;28;46347;-67
2024/01/15 01:10:18;;;;;;;;;38.25;31.00;;;;;7.38;100.00;100356.88;2096093;28;46531;-66
2024/01/15 01:11:18;;;;;;;;;35.25;30.00;;;;;7.39;100.00;100352.47;2096913;28;46378;-67
2024/01/15 01:12:19;;;;;;;;;36.00;28.75;;;;;7.30;100.00;100358.75;2097655;28;45562;-67
2024/01/15 01:13:19;;;;;;;;;30.25;28.25;;;;;7.27;100.00;100358.81;2097179;28;46529;-66
2024/01/15 01:14:19;;;;;;;;;30.75;28.00;;;;;7.38;100.00;100351.59;2096841;28;46267;-66
2024/01/15 01:15:20;;;;;;;;;37.25;31.50;;;;;7.41;100.00;100352.44;2096856;28;45560;-66
2024/01/15 01:16:20;;;;;;;;;30.50;25.50;;;;;7.41;100.00;100350.69;2097396;28;46684;-68
2024/01/15 01:17:20;;;;;;;;;30.25;29.00;;;;;7.44;100.00;100347.13;2096723;28;46725;-67
2024/01/15 01:18:21;;;;;;;;;29.00;28.75;;;;;7.46;100.00;100346.19;2096990;28;46679;-66
2024/01/15 01:19:21;;;;;;;;;29.75;27.50;;;;;7.47;100.00;100352.34;2097404;28;46701;-66
2024/01/15 01:20:21;;;;;;;;;27.75;26.25;;;;;7.48;100.00;100351.44;2097366;28;45939;-65
2024/01/15 01:21:21;;;;;;;;;30.00;30.00;;;;;7.47;100.00;100349.72;2099248;28;46658;-68
2024/01/15 01:22:22;;;;;;;;;29.00;25.75;;;;;7.48;100.00;100352.31;2097438;27;47186;-66
2024/01/15 01:23:22;;;;;;;;;30.00;28.75;;;;;7.50;100.00;100361.13;2096439;28;46110;-65
2024/01/15 01:24:22;;;;;;;;;27.75;27.00;;;;;7.51;100.00;100359.34;2096518;28;46278;-66
2024/01/15 01:25:23;;;;;;;;;37.00;35.25;;;;;7.52;100.00;100363.72;2098021;28;46390;-68
2024/01/15 01:26:23;;;;;;;;;35.75;30.75;;;;;7.52;100.00;100358.44;2088832;28;45621;-67
2024/01/15 01:27:23;;;;;;;;;35.75;33.75;;;;;7.53;100.00;100352.28;2087388;28;46261;-65
2024/01/15 01:28:24;;;;;;;;;33.00;27.50;;;;;7.54;100.00;100351.38;2092126;28;46974;-67
2024/01/15 01:29:26;;;;;;;;;35.25;30.75;;;;;7.42;100.00;100343.63;2096631;28;45993;-66
2024/01/15 01:30:26;;;;;;;;;35.60;32.40;;;;;7.52;100.00;100339.97;2095456;28;46079;-65
2024/01/15 01:31:26;;;;;;;;;35.25;33.00;;;;;7.53;100.00;100342.59;2096092;28;46330;-66
2024/01/15 01:32:27;;;;;;;;;33.75;32.25;;;;;7.53;100.00;100331.16;2096562;28;46814;-66
2024/01/15 01:33:27;;;;;;;;;30.75;29.50;;;;;7.51;100.00;100341.75;2097206;28;46067;-66
2024/01/15 01:34:27;;;;;;;;;38.25;31.75;;;;;7.51;100.00;100339.09;2097246;28;45712;-66
2024/01/15 01:35:28;;;;;;;;;38.75;34.25;;;;;7.51;100.00;100338.22;2097221;28;46568;-65
2024/01/15 01:36:28;;;;;;;;;34.00;31.25;;;;;7.50;100.00;100332.06;2096104;28;45551;-66
2024/01/15 01:37:28;;;;;;;;;36.00;28.50;;;;;7.51;100.00;100338.22;2097485;28;45895;-66
2024/01/15 01:38:29;;;;;;;;;30.25;27.25;;;;;7.51;100.00;100333.81;2100389;28;46320;-66
2024/01/15 01:39:30;;;;;;;;;36.25;33.50;;;;;7.51;100.00;100335.59;2100050;27;47362;-65
2024/01/15 01:40:30;;;;;;;;;29.75;29.25;;;;;7.50;100.00;100331.19;2097476;28;45615;-67
2024/01/15 01:41:30;;;;;;;;;27.75;27.50;;;;;7.49;100.00;100330.31;2097091;28;46477;-66
2024/01/15 01:42:30;;;;;;;;;35.75;31.25;;;;;7.49;100.00;100329.44;2096829;28;46772;-66
2024/01/15 01:43:31;;;;;;;;;34.50;28.75;;;;;7.49;100.00;100332.06;2097247;28;46277;-67
2024/01/15 01:44:31;;;;;;;;;29.00;27.75;;;;;7.48;100.00;100328.56;2096894;28;46515;-67
2024/01/15 01:45:32;;;;;;;;;27.00;26.25;;;;;7.49;100.00;100334.72;2095761;28;46236;-68
2024/01/15 01:46:33;;;;;;;;;35.00;29.25;;;;;7.49;100.00;100329.44;2095699;28;46410;-66
2024/01/15 01:47:33;;;;;;;;;26.40;25.20;;;;;7.48;100.00;100328.56;2097457;28;45920;-68
2024/01/15 01:48:34;;;;;;;;;30.00;30.00;;;;;7.49;100.00;100330.31;2097040;28;45326;-67
2024/01/15 01:49:35;;;;;;;;;32.25;31.75;;;;;7.49;100.00;100332.94;2096230;28;46593;-67
2024/01/15 01:50:35;;;;;;;;;29.80;25.00;;;;;7.47;100.00;100324.19;2096844;28;47004;-66
2024/01/15 01:51:39;;;;;;;;;32.00;29.00;;;;;7.48;100.00;100328.56;2097041;28;47070;-67
2024/01/15 01:52:40;;;;;;;;;31.00;28.00;;;;;7.49;100.00;100329.44;2096144;28;46648;-67
2024/01/15 01:53:41;;;;;;;;;35.00;31.00;;;;;7.49;100.00;100334.72;2097084;28;46686;-68
2024/01/15 01:54:41;;;;;;;;;57.00;46.25;;;;;7.48;100.00;100328.56;2094084;28;45377;-66
2024/01/15 01:55:42;;;;;;;;;54.00;45.00;;;;;7.49;100.00;100332.94;2094817;28;45042;-67
2024/01/15 01:56:42;;;;;;;;;43.00;38.75;;;;;7.50;100.00;100326.78;2095287;28;46240;-66
2024/01/15 01:57:43;;;;;;;;;38.20;35.80;;;;;7.51;100.00;100325.03;2095160;28;46525;-66
2024/01/15 01:58:45;;;;;;;;;41.50;36.50;;;;;7.49;100.00;100321.50;2104252;28;46519;-66
2024/01/15 01:59:45;;;;;;;;;32.20;30.20;;;;;7.47;100.00;100313.63;2100658;28;46116;-66
2024/01/15 02:00:47;;;;;;;;;32.75;29.25;;;;;7.47;100.00;100328.59;2098947;28;46833;-66
2024/01/15 02:01:49;;;;;;;;;25.60;25.20;;;;;7.44;100.00;100316.31;2096451;28;46395;-66
2024/01/15 02:02:50;;;;;;;;;32.00;27.20;;;;;7.44;100.00;100318.09;2096967;28;46574;-66
2024/01/15 02:03:50;;;;;;;;;30.50;28.75;;;;;7.41;100.00;100319.00;2096533;28;46076;-66
2024/01/15 02:04:50;;;;;;;;;31.50;27.75;;;;;7.41;100.00;100311.09;2102172;28;46147;-66
2024/01/15 02:05:52;;;;;;;;;32.25;29.50;;;;;7.41;100.00;100315.50;2099351;27;46723;-66
2024/01/15 02:06:53;;;;;;;;;28.40;27.80;;;;;7.41;100.00;100308.44;2096110;28;46472;-68
2024/01/15 02:07:53;;;;;;;;;31.50;30.00;;;;;7.41;100.00;100315.50;2096239;28;46281;-66
2024/01/15 02:08:54;;;;;;;;;29.00;26.50;;;;;7.42;100.00;100318.09;2094836;28;45668;-66
2024/01/15 02:09:54;;;;;;;;;37.00;30.50;;;;;7.43;100.00;100313.69;2099308;28;46253;-67
2024/01/15 02:10:54;;;;;;;;;37.50;30.50;;;;;7.43;100.00;100311.06;2092548;27;46230;-67
2024/01/15 02:11:55;;;;;;;;;31.00;27.25;;;;;7.42;100.00;100301.41;2096478;28;46344;-66
2024/01/15 02:12:55;;;;;;;;;30.00;29.75;;;;;7.40;100.00;100300.56;2089096;28;46212;-66
2024/01/15 02:13:56;;;;;;;;;35.50;31.50;;;;;7.38;100.00;100290.03;2095888;28;46471;-66
2024/01/15 02:14:56;;;;;;;;;20.50;19.50;;;;;7.38;100.00;100285.63;2096797;28;46703;-66
2024/01/15 02:15:56;;;;;;;;;29.50;27.50;;;;;7.40;100.00;100284.72;2099676;28;46280;-67
2024/01/15 02:16:57;;;;;;;;;32.00;24.75;;;;;7.39;100.00;100275.91;2101447;27;46492;-66
2024/01/15 02:18:02;;;;;;;;;27.25;25.75;;;;;7.40;100.00;100280.31;2096827;28;46710;-66
2024/01/15 02:19:03;;;;;;;;;26.80;25.20;;;;;7.41;100.00;100283.81;2097046;28;45981;-67
2024/01/15 02:20:03;;;;;;;;;28.25;26.75;;;;;7.40;100.00;100279.44;2097257;28;46077;-67
2024/01/15 02:21:04;;;;;;;;;36.50;31.25;;;;;7.40;100.00;100288.22;2096542;28;45316;-66
2024/01/15 02:22:04;;;;;;;;;33.25;30.75;;;;;7.38;100.00;100277.69;2096220;28;46086;-66
2024/01/15 02:23:12;;;;;;;;;28.00;26.75;;;;;7.40;100.00;100276.78;2096860;28;46217;-67
2024/01/15 02:24:13;;;;;;;;;32.60;30.20;;;;;7.38;100.00;100279.47;2096665;28;46612;-67
2024/01/15 02:25:13;;;;;;;;;26.25;25.00;;;;;7.42;100.00;100272.34;2096606;28;46040;-67
2024/01/15 02:26:14;;;;;;;;;28.50;26.50;;;;;7.42;100.00;100265.31;2096680;28;46452;-67
2024/01/15 02:27:15;;;;;;;;;27.50;27.50;;;;;7.44;100.00;100263.50;2096207;28;45569;-66
2024/01/15 02:28:17;;;;;;;;;30.75;30.50;;;;;7.42;100.00;100260.03;2096202;28;46334;-67
2024/01/15 02:29:17;;;;;;;;;33.60;29.80;;;;;7.42;100.00;100254.75;2094423;28;46449;-67
2024/01/15 02:30:18;;;;;;;;;31.00;26.25;;;;;7.43;100.00;100251.22;2095862;28;45561;-67
2024/01/15 02:31:18;;;;;;;;;30.75;28.75;;;;;7.42;100.00;100244.19;2095621;28;46299;-66
2024/01/15 02:32:18;;;;;;;;;23.00;20.50;;;;;7.41;100.00;100254.78;2093781;28;46511;-67
2024/01/15 02:33:19;;;;;;;;;29.50;25.75;;;;;7.41;100.00;100267.97;2097440;28;46565;-66
2024/01/15 02:34:19;;;;;;;;;34.00;29.50;;;;;7.42;100.00;100277.63;2092717;28;46726;-66
2024/01/15 02:35:19;;;;;;;;;35.75;29.75;;;;;7.44;100.00;100273.19;2096596;28;46399;-67
2024/01/15 02:36:20;;;;;;;;;33.00;28.25;;;;;7.44;100.00;100273.19;2096178;28;45578;-66
2024/01/15 02:37:20;;;;;;;;;32.75;30.00;;;;;7.44;100.00;100276.72;2095698;28;46593;-67
2024/01/15 02:38:21;;;;;;;;;29.00;28.25;;;;;7.45;100.00;100275.81;2090846;28;45987;-66
2024/01/15 02:39:21;;;;;;;;;35.00;30.75;;;;;7.47;100.00;100278.41;2095496;28;46825;-66
2024/01/15 02:40:21;;;;;;;;;35.50;33.00;;;;;7.47;100.00;100281.94;2096171;28;46382;-66
2024/01/15 02:41:22;;;;;;;;;33.50;32.75;;;;;7.47;100.00;100281.06;2096791;28;46932;-66
2024/01/15 02:42:22;;;;;;;;;30.25;30.25;;;;;7.46;100.00;100292.53;2096302;28;46963;-66
2024/01/15 02:43:22;;;;;;;;;30.00;26.25;;;;;7.46;100.00;100296.03;2096549;28;46232;-67
2024/01/15 02:44:23;;;;;;;;;32.00;30.25;;;;;7.48;100.00;100303.94;2096110;28;45905;-66
2024/01/15 02:45:23;;;;;;;;;29.50;27.25;;;;;7.49;100.00;100303.03;2101340;28;46531;-66
2024/01/15 02:46:24;;;;;;;;;32.25;27.50;;;;;7.49;100.00;100290.69;2105617;27;45909;-66
2024/01/15 02:47:24;;;;;;;;;31.50;29.00;;;;;7.51;100.00;100296.84;2104240;28;45815;-67
2024/01/15 02:48:24;;;;;;;;;28.75;27.25;;;;;7.52;100.00;100303.88;2099730;28;45602;-66
2024/01/15 02:49:25;;;;;;;;;28.75;28.50;;;;;7.56;100.00;100304.69;2101323;28;46107;-66
2024/01/15 02:50:25;;;;;;;;;31.50;28.00;;;;;7.57;100.00;100304.66;2096384;28;46880;-67
2024/01/15 02:51:25;;;;;;;;;27.75;25.75;;;;;7.57;100.00;100299.38;2097774;28;46116;-66
2024/01/15 02:52:26;;;;;;;;;24.00;23.25;;;;;7.59;100.00;100302.00;2101598;27;45215;-67
2024/01/15 02:53:26;;;;;;;;;31.75;31.25;;;;;7.61;100.00;100308.13;2096943;28;46090;-66
2024/01/15 02:54:26;;;;;;;;;25.25;24.50;;;;;7.61;100.00;100302.84;2096050;28;45330;-66
2024/01/15 02:55:29;;;;;;;;;40.25;30.25;;;;;7.61;100.00;100303.69;2093694;28;47501;-66
2024/01/15 02:56:29;;;;;;;;;28.60;28.20;;;;;7.62;100.00;100300.19;2098922;28;46410;-66
2024/01/15 02:57:29;;;;;;;;;27.50;24.75;;;;;7.62;100.00;100294.91;2100190;28;47254;-67
2024/01/15 02:58:30;;;;;;;;;29.25;26.75;;;;;7.64;100.00;100290.47;2096995;28;45567;-67
2024/01/15 02:59:30;;;;;;;;;34.75;28.75;;;;;7.65;100.00;100289.56;2096423;28;46344;-66
2024/01/15 03:00:31;;;;;;;;;23.75;22.25;;;;;7.67;100.00;100292.19;2096786;28;45881;-66
2024/01/15 03:01:31;;;;;;;;;31.00;26.25;;;;;7.70;100.00;100276.28;2096783;28;46331;-66
2024/01/15 03:02:31;;;;;;;;;28.00;26.75;;;;;7.70;100.00;100281.56;2096445;28;46470;-65
2024/01/15 03:03:33;;;;;;;;;26.00;25.00;;;;;7.71;100.00;100282.44;2095568;28;45568;-67
2024/01/15 03:04:33;;;;;;;;;31.60;28.60;;;;;7.70;100.00;100285.97;2095971;28;46305;-67
2024/01/15 03:05:33;;;;;;;;;30.25;29.25;;;;;7.70;100.00;100285.97;2096181;28;46479;-67
2024/01/15 03:06:34;;;;;;;;;24.75;20.75;;;;;7.70;100.00;100296.53;2093574;28;46463;-66
2024/01/15 03:07:34;;;;;;;;;27.50;26.00;;;;;7.71;100.00;100300.91;2095883;28;46304;-68
2024/01/15 03:08:35;;;;;;;;;27.25;26.00;;;;;7.72;100.00;100298.25;2096276;28;46372;-67
2024/01/15 03:09:35;;;;;;;;;27.50;26.25;;;;;7.73;100.00;100299.13;2096820;28;46144;-68
2024/01/15 03:10:35;;;;;;;;;26.00;25.50;;;;;7.75;100.00;100289.41;2095499;28;44984;-67
2024/01/15 03:11:39;;;;;;;;;27.75;24.50;;;;;7.76;100.00;100291.16;2091474;28;46326;-68
2024/01/15 03:12:39;;;;;;;;;29.60;25.60;;;;;7.76;100.00;100299.09;2096189;28;46466;-67
2024/01/15 03:13:39;;;;;;;;;33.00;27.75;;;;;7.76;100.00;100286.75;2096914;28;46185;-67
2024/01/15 03:14:40;;;;;;;;;26.25;25.75;;;;;7.80;100.00;100298.13;2096286;28;46708;-67
2024/01/15 03:15:40;;;;;;;;;27.75;25.00;;;;;7.81;100.00;100291.94;2096182;28;46553;-67
2024/01/15 03:16:41;;;;;;;;;27.50;27.50;;;;;7.80;100.00;100293.72;2096142;28;44979;-65
2024/01/15 03:17:44;;;;;;;;;31.80;30.00;;;;;7.82;100.00;100301.63;2093731;28;46272;-66
2024/01/15 03:18:45;;;;;;;;;24.40;22.80;;;;;7.81;100.00;100292.81;2094303;28;46720;-66
2024/01/15 03:19:45;;;;;;;;;28.25;26.50;;;;;7.83;100.00;100292.78;2094001;28;45915;-67
2024/01/15 03:20:45;;;;;;;;;33.75;28.00;;;;;7.82;100.00;100291.06;2096306;28;45858;-66
2024/01/15 03:21:46;;;;;;;;;28.50;25.00;;;;;7.82;100.00;100293.69;2096453;28;46445;-67
2024/01/15 03:22:46;;;;;;;;;29.25;26.50;;;;;7.83;100.00;100293.66;2095694;28;46715;-66
2024/01/15 03:23:46;;;;;;;;;28.75;24.25;;;;;7.85;100.00;100301.56;2099840;28;46583;-67
2024/01/15 03:24:47;;;;;;;;;26.50;22.50;;;;;7.82;100.00;100306.91;2096264;28;47804;-67
2024/01/15 03:25:47;;;;;;;;;27.00;24.25;;;;;7.86;100.00;100308.56;2096654;28;46188;-68
2024/01/15 03:26:47;;;;;;;;;25.50;25.50;;;;;7.86;100.00;100303.28;2095747;28;46376;-67
2024/01/15 03:27:48;;;;;;;;;31.25;28.25;;;;;7.86;100.00;100305.94;2096646;28;46468;-67
2024/01/15 03:28:48;;;;;;;;;28.00;24.25;;;;;7.86;100.00;100306.81;2096044;28;45555;-67
2024/01/15 03:29:48;;;;;;;;;25.00;23.00;;;;;7.88;100.00;100314.75;2096274;28;46220;-66
2024/01/15 03:30:49;;;;;;;;;20.50;20.50;;;;;7.88;100.00;100304.16;2095521;28;46626;-66
2024/01/15 03:31:49;;;;;;;;;21.50;21.50;;;;;7.88;100.00;100306.81;2089919;28;46717;-66
2024/01/15 03:32:50;;;;;;;;;25.50;23.75;;;;;7.89;100.00;100298.84;2092684;28;46536;-66
2024/01/15 03:33:50;;;;;;;;;28.00;28.00;;;;;7.90;100.00;100302.38;2096708;28;46205;-66
2024/01/15 03:34:52;;;;;;;;;28.00;22.25;;;;;7.91;100.00;100309.41;2087315;28;47958;-66
2024/01/15 03:35:52;;;;;;;;;31.00;25.00;;;;;7.91;100.00;100301.47;2087685;28;47053;-66
2024/01/15 03:36:52;;;;;;;;;26.75;25.25;;;;;7.92;100.00;100312.00;2095729;28;46415;-66
2024/01/15 03:37:53;;;;;;;;;23.75;23.75;;;;;7.91;100.00;100312.91;2096309;28;46121;-66
2024/01/15 03:38:53;;;;;;;;;29.75;25.25;;;;;7.93;100.00;100308.47;2095853;28;46234;-66
2024/01/15 03:39:53;;;;;;;;;21.50;21.50;;;;;7.92;100.00;100309.34;2095650;28;46941;-66
2024/01/15 03:40:54;;;;;;;;;22.25;20.75;;;;;7.93;100.00;100308.47;2094707;28;46338;-66
2024/01/15 03:41:55;;;;;;;;;24.25;23.75;;;;;7.92;100.00;100304.06;2096299;28;46606;-66
2024/01/15 03:42:55;;;;;;;;;16.00;13.20;;;;;7.92;100.00;100304.06;2096084;28;47721;-67
2024/01/15 03:43:56;;;;;;;;;27.50;21.00;;;;;7.91;100.00;100297.06;2096385;28;46447;-67
2024/01/15 03:44:56;;;;;;;;;21.75;21.25;;;;;7.92;100.00;100308.50;2095313;28;47300;-67
2024/01/15 03:45:56;;;;;;;;;24.75;23.25;;;;;7.93;100.00;100302.31;2092181;28;46073;-67
2024/01/15 03:46:57;;;;;;;;;19.25;19.25;;;;;7.92;100.00;100301.44;2095198;28;45981;-66
2024/01/15 03:47:58;;;;;;;;;23.20;19.60;;;;;7.92;100.00;100297.91;2096296;28;46382;-67
2024/01/15 03:48:58;;;;;;;;;24.25;22.00;;;;;7.91;100.00;100297.06;2096529;28;46766;-67
2024/01/15 03:49:59;;;;;;;;;21.00;18.50;;;;;7.90;100.00;100295.31;2088966;28;46277;-66
2024/01/15 03:50:59;;;;;;;;;23.75;20.00;;;;;7.90;100.00;100297.09;2095992;28;45203;-67
2024/01/15 03:51:59;;;;;;;;;24.75;20.75;;;;;7.90;100.00;100302.38;2095519;28;46188;-67
2024/01/15 03:53:00;;;;;;;;;24.50;22.00;;;;;7.89;100.00;100298.84;2095416;28;46309;-66
2024/01/15 03:54:00;;;;;;;;;29.25;24.75;;;;;7.89;100.00;100293.56;2096232;28;45522;-67
2024/01/15 03:55:00;;;;;;;;;23.50;20.00;;;;;7.90;100.00;100295.31;2095312;28;45648;-67
2024/01/15 03:56:01;;;;;;;;;26.00;25.25;;;;;7.91;100.00;100293.53;2096385;28;46674;-67
2024/01/15 03:57:01;;;;;;;;;24.50;24.50;;;;;7.92;100.00;100293.50;2091063;28;46880;-67
2024/01/15 03:58:01;;;;;;;;;25.75;23.25;;;;;7.93;100.00;100292.59;2095828;28;46073;-67
2024/01/15 03:59:02;;;;;;;;;28.00;24.00;;;;;7.93;100.00;100295.25;2093098;28;47728;-66
2024/01/15 04:00:03;;;;;;;;;26.00;22.50;;;;;7.95;100.00;100289.94;2095553;28;46703;-66
2024/01/15 04:01:07;;;;;;;;;26.20;22.20;;;;;7.93;100.00;100287.31;2096084;28;46372;-67
2024/01/15 04:02:07;;;;;;;;;25.80;24.40;;;;;7.94;100.00;100291.72;2096247;28;45648;-68
2024/01/15 04:03:08;;;;;;;;;24.75;22.50;;;;;7.92;100.00;100280.31;2096626;28;46031;-67
2024/01/15 04:04:08;;;;;;;;;21.00;20.25;;;;;7.92;100.00;100277.66;2096014;28;46100;-67
2024/01/15 04:05:08;;;;;;;;;24.00;22.25;;;;;7.92;100.00;100276.78;2096137;28;45367;-67
2024/01/15 04:06:09;;;;;;;;;28.50;25.00;;;;;7.83;100.00;100279.59;2096095;28;45761;-68
2024/01/15 04:07:10;;;;;;;;;24.00;20.25;;;;;7.79;100.00;100276.13;2094442;28;46563;-68
2024/01/15 04:08:10;;;;;;;;;21.20;19.40;;;;;7.85;100.00;100270.72;2096086;28;45523;-66
2024/01/15 04:09:13;;;;;;;;;25.00;21.50;;;;;7.90;100.00;100273.31;2096316;28;46473;-66
2024/01/15 04:10:13;;;;;;;;;18.60;17.00;;;;;7.80;100.00;100267.31;2095297;28;46517;-67
2024/01/15 04:11:13;;;;;;;;;22.00;19.50;;;;;7.90;100.00;100268.88;2091060;28;46738;-67
2024/01/15 04:12:14;;;;;;;;;17.25;16.50;;;;;7.90;100.00;100260.97;2091754;28;45861;-66
2024/01/15 04:13:14;;;;;;;;;19.50;17.50;;;;;7.92;100.00;100261.81;2090145;28;45584;-67
2024/01/15 04:14:14;;;;;;;;;21.50;20.00;;;;;7.92;100.00;100259.16;2095809;28;45504;-66
2024/01/15 04:15:15;;;;;;;;;23.75;20.50;;;;;7.93;100.00;100252.97;2095847;28;46201;-66
2024/01/15 04:16:15;;;;;;;;;21.00;19.25;;;;;7.92;100.00;100248.59;2099120;28;45769;-67
2024/01/15 04:17:16;;;;;;;;;19.75;18.25;;;;;7.92;100.00;100250.38;2096377;28;45652;-66
2024/01/15 04:18:17;;;;;;;;;20.50;20.25;;;;;7.91;100.00;100246.84;2096344;27;46256;-66
2024/01/15 04:19:18;;;;;;;;;23.20;21.40;;;;;7.92;100.00;100259.16;2096722;28;46145;-67
2024/01/15 04:20:18;;;;;;;;;21.00;20.50;;;;;7.93;100.00;100260.03;2095115;28;46759;-66
2024/01/15 04:21:18;;;;;;;;;20.25;18.50;;;;;7.92;100.00;100258.28;2095946;28;46425;-67
2024/01/15 04:22:19;;;;;;;;;19.25;18.00;;;;;7.92;100.00;100255.66;2095235;28;46302;-67
2024/01/15 04:23:19;;;;;;;;;24.25;23.00;;;;;7.94;100.00;100253.84;2095464;28;45944;-67
2024/01/15 04:24:19;;;;;;;;;14.25;12.75;;;;;7.94;100.00;100256.50;2092965;28;46993;-67
2024/01/15 04:25:20;;;;;;;;;17.50;17.25;;;;;7.94;100.00;100252.06;2093771;28;46584;-67
2024/01/15 04:26:20;;;;;;;;;21.50;19.75;;;;;7.94;100.00;100249.44;2092199;28;46641;-67
2024/01/15 04:27:20;;;;;;;;;21.50;19.25;;;;;7.96;100.00;100244.13;2094938;28;45946;-67
2024/01/15 04:28:20;;;;;;;;;18.25;14.25;;;;;7.95;100.00;100245.00;2095523;28;46483;-66
2024/01/15 04:29:21;;;;;;;;;21.50;17.50;;;;;7.95;100.00;100247.66;2093864;28;46381;-67
2024/01/15 04:30:21;;;;;;;;;20.25;19.00;;;;;7.93;100.00;100242.41;2094353;28;46335;-66
2024/01/15 04:31:26;;;;;;;;;23.50;19.25;;;;;7.93;100.00;100246.81;2096089;28;46284;-66
2024/01/15 04:32:27;;;;;;;;;20.60;19.40;;;;;7.91;100.00;100246.84;2097204;28;46582;-66
2024/01/15 04:33:27;;;;;;;;;19.50;17.50;;;;;7.80;100.00;100240.88;2100061;28;46946;-65
2024/01/15 04:34:27;;;;;;;;;21.75;19.50;;;;;7.75;100.00;100240.13;2098022;28;45975;-66
2024/01/15 04:35:28;;;;;;;;;21.50;20.75;;;;;7.74;100.00;100248.03;2097059;28;46352;-66